sensor_id;sensor_type;location;lat;lon;timestamp;P1;durP1;ratioP1;P2;durP2;ratioP2
10987;SDS011;5547;42.672;23.230;2023-03-24T00:02:53;36.65;;;23.17;;
10987;SDS011;5547;42.672;23.230;2023-03-24T00:05:56;34.67;;;24.40;;
10987;SDS011;5547;42.672;23.230;2023-03-24T00:09:02;42.55;;;26.70;;
10987;SDS011;5547;42.672;23.230;2023-03-24T00:12:03;43.50;;;28.10;;
10987;SDS011;5547;42.672;23.230;2023-03-24T00:15:05;51.70;;;31.35;;
10987;SDS011;5547;42.672;23.230;2023-03-24T00:18:07;52.55;;;30.83;;
10987;SDS011;5547;42.672;23.230;2023-03-24T00:21:09;50.83;;;31.27;;
10987;SDS011;5547;42.672;23.230;2023-03-24T00:24:12;48.33;;;28.60;;
10987;SDS011;5547;42.672;23.230;2023-03-24T00:27:12;44.63;;;27.98;;
10987;SDS011;5547;42.672;23.230;2023-03-24T00:30:15;43.40;;;26.83;;
10987;SDS011;5547;42.672;23.230;2023-03-24T00:33:16;47.03;;;30.42;;
10987;SDS011;5547;42.672;23.230;2023-03-24T00:36:18;40.67;;;25.70;;
10987;SDS011;5547;42.672;23.230;2023-03-24T00:39:20;37.72;;;24.45;;
10987;SDS011;5547;42.672;23.230;2023-03-24T00:42:20;34.20;;;22.90;;
10987;SDS011;5547;42.672;23.230;2023-03-24T00:45:21;41.40;;;25.50;;
10987;SDS011;5547;42.672;23.230;2023-03-24T00:48:24;44.78;;;27.17;;
10987;SDS011;5547;42.672;23.230;2023-03-24T00:51:26;52.08;;;28.60;;
10987;SDS011;5547;42.672;23.230;2023-03-24T00:54:28;47.72;;;27.52;;
10987;SDS011;5547;42.672;23.230;2023-03-24T00:57:30;47.27;;;27.30;;
10987;SDS011;5547;42.672;23.230;2023-03-24T01:00:34;42.25;;;25.63;;
10987;SDS011;5547;42.672;23.230;2023-03-24T01:03:34;42.27;;;26.17;;
10987;SDS011;5547;42.672;23.230;2023-03-24T01:06:42;48.10;;;27.27;;
10987;SDS011;5547;42.672;23.230;2023-03-24T01:09:44;47.73;;;27.43;;
10987;SDS011;5547;42.672;23.230;2023-03-24T01:12:51;51.30;;;28.33;;
10987;SDS011;5547;42.672;23.230;2023-03-24T01:15:54;81.25;;;41.75;;
10987;SDS011;5547;42.672;23.230;2023-03-24T01:18:55;82.80;;;43.15;;
10987;SDS011;5547;42.672;23.230;2023-03-24T01:21:56;72.53;;;37.43;;
10987;SDS011;5547;42.672;23.230;2023-03-24T01:24:56;62.60;;;33.00;;
10987;SDS011;5547;42.672;23.230;2023-03-24T01:27:57;66.10;;;34.27;;
10987;SDS011;5547;42.672;23.230;2023-03-24T01:30:57;57.53;;;31.15;;
10987;SDS011;5547;42.672;23.230;2023-03-24T01:33:58;60.73;;;33.67;;
10987;SDS011;5547;42.672;23.230;2023-03-24T01:36:59;63.30;;;33.37;;
10987;SDS011;5547;42.672;23.230;2023-03-24T01:40:00;65.55;;;33.05;;
10987;SDS011;5547;42.672;23.230;2023-03-24T01:43:01;54.60;;;30.27;;
10987;SDS011;5547;42.672;23.230;2023-03-24T01:46:13;54.17;;;29.13;;
10987;SDS011;5547;42.672;23.230;2023-03-24T01:49:14;54.30;;;28.60;;
10987;SDS011;5547;42.672;23.230;2023-03-24T01:52:17;53.08;;;27.98;;
10987;SDS011;5547;42.672;23.230;2023-03-24T01:55:21;45.33;;;26.23;;
10987;SDS011;5547;42.672;23.230;2023-03-24T01:58:23;43.87;;;26.30;;
10987;SDS011;5547;42.672;23.230;2023-03-24T02:01:28;46.60;;;26.52;;
10987;SDS011;5547;42.672;23.230;2023-03-24T02:04:37;39.88;;;24.73;;
10987;SDS011;5547;42.672;23.230;2023-03-24T02:11:11;47.22;;;27.00;;
10987;SDS011;5547;42.672;23.230;2023-03-24T02:14:12;53.00;;;27.60;;
10987;SDS011;5547;42.672;23.230;2023-03-24T02:17:29;53.22;;;28.38;;
10987;SDS011;5547;42.672;23.230;2023-03-24T02:24:11;48.90;;;27.98;;
10987;SDS011;5547;42.672;23.230;2023-03-24T02:30:41;60.20;;;32.50;;
10987;SDS011;5547;42.672;23.230;2023-03-24T02:40:03;56.93;;;31.47;;
10987;SDS011;5547;42.672;23.230;2023-03-24T02:47:00;78.03;;;35.58;;
10987;SDS011;5547;42.672;23.230;2023-03-24T02:56:38;98.03;;;42.20;;
10987;SDS011;5547;42.672;23.230;2023-03-24T02:59:52;97.85;;;40.97;;
10987;SDS011;5547;42.672;23.230;2023-03-24T03:03:04;86.20;;;37.97;;
10987;SDS011;5547;42.672;23.230;2023-03-24T03:06:10;83.45;;;38.72;;
10987;SDS011;5547;42.672;23.230;2023-03-24T03:09:17;77.18;;;38.63;;
10987;SDS011;5547;42.672;23.230;2023-03-24T03:12:20;78.57;;;36.83;;
10987;SDS011;5547;42.672;23.230;2023-03-24T03:15:28;81.63;;;37.13;;
10987;SDS011;5547;42.672;23.230;2023-03-24T03:18:40;76.57;;;36.13;;
10987;SDS011;5547;42.672;23.230;2023-03-24T03:21:46;74.07;;;36.13;;
10987;SDS011;5547;42.672;23.230;2023-03-24T03:24:50;57.47;;;31.73;;
10987;SDS011;5547;42.672;23.230;2023-03-24T03:27:54;58.88;;;31.67;;
10987;SDS011;5547;42.672;23.230;2023-03-24T03:31:00;65.15;;;33.70;;
10987;SDS011;5547;42.672;23.230;2023-03-24T03:37:25;69.15;;;34.72;;
10987;SDS011;5547;42.672;23.230;2023-03-24T03:40:34;74.78;;;36.42;;
10987;SDS011;5547;42.672;23.230;2023-03-24T03:43:58;73.20;;;35.58;;
10987;SDS011;5547;42.672;23.230;2023-03-24T03:47:00;71.27;;;34.57;;
10987;SDS011;5547;42.672;23.230;2023-03-24T03:50:00;57.35;;;30.85;;
10987;SDS011;5547;42.672;23.230;2023-03-24T03:53:02;60.60;;;31.37;;
10987;SDS011;5547;42.672;23.230;2023-03-24T03:56:04;78.45;;;37.47;;
10987;SDS011;5547;42.672;23.230;2023-03-24T03:59:05;83.60;;;38.67;;
10987;SDS011;5547;42.672;23.230;2023-03-24T04:05:37;74.53;;;34.95;;
10987;SDS011;5547;42.672;23.230;2023-03-24T04:31:54;81.55;;;36.65;;
10987;SDS011;5547;42.672;23.230;2023-03-24T04:35:11;69.53;;;34.47;;
10987;SDS011;5547;42.672;23.230;2023-03-24T04:38:25;61.40;;;30.42;;
10987;SDS011;5547;42.672;23.230;2023-03-24T04:41:29;61.92;;;31.25;;
10987;SDS011;5547;42.672;23.230;2023-03-24T04:44:30;72.07;;;33.47;;
10987;SDS011;5547;42.672;23.230;2023-03-24T04:47:33;68.15;;;34.22;;
10987;SDS011;5547;42.672;23.230;2023-03-24T04:50:47;69.63;;;33.45;;
10987;SDS011;5547;42.672;23.230;2023-03-24T04:53:52;61.28;;;32.03;;
10987;SDS011;5547;42.672;23.230;2023-03-24T04:56:52;67.50;;;32.00;;
10987;SDS011;5547;42.672;23.230;2023-03-24T04:59:55;62.80;;;31.98;;
10987;SDS011;5547;42.672;23.230;2023-03-24T05:02:56;63.13;;;30.73;;
10987;SDS011;5547;42.672;23.230;2023-03-24T05:05:56;61.67;;;32.37;;
10987;SDS011;5547;42.672;23.230;2023-03-24T05:08:58;55.60;;;31.10;;
10987;SDS011;5547;42.672;23.230;2023-03-24T05:11:59;50.50;;;28.23;;
10987;SDS011;5547;42.672;23.230;2023-03-24T05:14:59;48.53;;;27.80;;
10987;SDS011;5547;42.672;23.230;2023-03-24T05:18:01;47.00;;;28.40;;
10987;SDS011;5547;42.672;23.230;2023-03-24T05:21:02;44.05;;;26.90;;
10987;SDS011;5547;42.672;23.230;2023-03-24T05:24:03;42.47;;;26.90;;
10987;SDS011;5547;42.672;23.230;2023-03-24T05:27:03;42.80;;;26.15;;
10987;SDS011;5547;42.672;23.230;2023-03-24T05:30:04;38.23;;;25.43;;
10987;SDS011;5547;42.672;23.230;2023-03-24T05:33:05;35.65;;;23.85;;
10987;SDS011;5547;42.672;23.230;2023-03-24T05:36:06;38.07;;;25.83;;
10987;SDS011;5547;42.672;23.230;2023-03-24T05:39:06;35.30;;;24.48;;
10987;SDS011;5547;42.672;23.230;2023-03-24T05:42:07;34.43;;;23.83;;
10987;SDS011;5547;42.672;23.230;2023-03-24T05:45:07;30.50;;;21.27;;
10987;SDS011;5547;42.672;23.230;2023-03-24T05:48:09;32.50;;;22.08;;
10987;SDS011;5547;42.672;23.230;2023-03-24T05:51:09;31.97;;;22.27;;
10987;SDS011;5547;42.672;23.230;2023-03-24T05:54:10;30.80;;;21.93;;
10987;SDS011;5547;42.672;23.230;2023-03-24T05:57:11;33.47;;;22.83;;
10987;SDS011;5547;42.672;23.230;2023-03-24T06:00:13;31.50;;;21.70;;
10987;SDS011;5547;42.672;23.230;2023-03-24T06:03:17;29.83;;;19.92;;
10987;SDS011;5547;42.672;23.230;2023-03-24T06:06:18;30.40;;;19.40;;
10987;SDS011;5547;42.672;23.230;2023-03-24T06:09:18;26.13;;;18.13;;
10987;SDS011;5547;42.672;23.230;2023-03-24T06:12:19;28.17;;;18.93;;
10987;SDS011;5547;42.672;23.230;2023-03-24T06:15:21;27.05;;;18.88;;
10987;SDS011;5547;42.672;23.230;2023-03-24T06:18:23;26.40;;;18.17;;
10987;SDS011;5547;42.672;23.230;2023-03-24T06:21:25;25.80;;;17.92;;
10987;SDS011;5547;42.672;23.230;2023-03-24T06:24:29;26.48;;;18.00;;
10987;SDS011;5547;42.672;23.230;2023-03-24T06:27:30;28.77;;;18.83;;
10987;SDS011;5547;42.672;23.230;2023-03-24T06:30:30;26.55;;;19.05;;
10987;SDS011;5547;42.672;23.230;2023-03-24T06:33:31;27.57;;;20.07;;
10987;SDS011;5547;42.672;23.230;2023-03-24T06:36:31;30.03;;;21.33;;
10987;SDS011;5547;42.672;23.230;2023-03-24T06:39:33;28.67;;;20.58;;
10987;SDS011;5547;42.672;23.230;2023-03-24T06:42:34;29.10;;;20.27;;
10987;SDS011;5547;42.672;23.230;2023-03-24T06:45:34;29.98;;;20.83;;
10987;SDS011;5547;42.672;23.230;2023-03-24T06:48:35;29.40;;;21.83;;
10987;SDS011;5547;42.672;23.230;2023-03-24T06:51:37;30.67;;;22.10;;
10987;SDS011;5547;42.672;23.230;2023-03-24T06:54:37;32.17;;;23.47;;
10987;SDS011;5547;42.672;23.230;2023-03-24T06:57:38;33.47;;;23.13;;
10987;SDS011;5547;42.672;23.230;2023-03-24T07:00:38;32.57;;;23.40;;
10987;SDS011;5547;42.672;23.230;2023-03-24T07:03:39;31.60;;;23.23;;
10987;SDS011;5547;42.672;23.230;2023-03-24T07:06:40;31.88;;;22.42;;
10987;SDS011;5547;42.672;23.230;2023-03-24T07:09:41;30.55;;;22.02;;
10987;SDS011;5547;42.672;23.230;2023-03-24T07:12:42;30.10;;;20.30;;
10987;SDS011;5547;42.672;23.230;2023-03-24T07:15:42;29.93;;;20.77;;
10987;SDS011;5547;42.672;23.230;2023-03-24T07:18:43;29.77;;;21.57;;
10987;SDS011;5547;42.672;23.230;2023-03-24T07:21:43;32.43;;;24.43;;
10987;SDS011;5547;42.672;23.230;2023-03-24T07:24:48;32.27;;;23.57;;
10987;SDS011;5547;42.672;23.230;2023-03-24T07:27:51;30.35;;;22.65;;
10987;SDS011;5547;42.672;23.230;2023-03-24T07:30:53;34.97;;;26.73;;
10987;SDS011;5547;42.672;23.230;2023-03-24T07:33:54;36.87;;;26.13;;
10987;SDS011;5547;42.672;23.230;2023-03-24T07:36:54;33.83;;;24.40;;
10987;SDS011;5547;42.672;23.230;2023-03-24T07:39:55;32.90;;;22.90;;
10987;SDS011;5547;42.672;23.230;2023-03-24T07:42:58;28.55;;;21.10;;
10987;SDS011;5547;42.672;23.230;2023-03-24T07:45:59;22.53;;;16.53;;
10987;SDS011;5547;42.672;23.230;2023-03-24T07:49:00;29.20;;;20.17;;
10987;SDS011;5547;42.672;23.230;2023-03-24T07:52:01;28.92;;;23.08;;
10987;SDS011;5547;42.672;23.230;2023-03-24T07:55:07;31.38;;;22.08;;
10987;SDS011;5547;42.672;23.230;2023-03-24T07:58:11;27.73;;;19.67;;
10987;SDS011;5547;42.672;23.230;2023-03-24T08:01:11;28.05;;;20.58;;
10987;SDS011;5547;42.672;23.230;2023-03-24T08:04:12;25.50;;;18.77;;
10987;SDS011;5547;42.672;23.230;2023-03-24T08:07:13;25.50;;;18.75;;
10987;SDS011;5547;42.672;23.230;2023-03-24T08:10:13;25.58;;;17.70;;
10987;SDS011;5547;42.672;23.230;2023-03-24T08:13:17;24.15;;;17.85;;
10987;SDS011;5547;42.672;23.230;2023-03-24T08:16:17;23.93;;;19.00;;
10987;SDS011;5547;42.672;23.230;2023-03-24T08:19:17;24.67;;;17.87;;
10987;SDS011;5547;42.672;23.230;2023-03-24T08:22:18;24.63;;;18.27;;
10987;SDS011;5547;42.672;23.230;2023-03-24T08:25:19;24.73;;;18.90;;
10987;SDS011;5547;42.672;23.230;2023-03-24T08:28:21;27.80;;;19.70;;
10987;SDS011;5547;42.672;23.230;2023-03-24T08:31:22;27.30;;;19.40;;
10987;SDS011;5547;42.672;23.230;2023-03-24T08:34:22;28.23;;;19.97;;
10987;SDS011;5547;42.672;23.230;2023-03-24T08:37:23;28.10;;;19.80;;
10987;SDS011;5547;42.672;23.230;2023-03-24T08:40:24;28.40;;;18.80;;
10987;SDS011;5547;42.672;23.230;2023-03-24T08:43:27;27.40;;;19.90;;
10987;SDS011;5547;42.672;23.230;2023-03-24T08:46:30;32.10;;;21.52;;
10987;SDS011;5547;42.672;23.230;2023-03-24T08:49:31;30.70;;;20.88;;
10987;SDS011;5547;42.672;23.230;2023-03-24T08:52:31;28.47;;;19.40;;
10987;SDS011;5547;42.672;23.230;2023-03-24T08:55:31;28.83;;;19.97;;
10987;SDS011;5547;42.672;23.230;2023-03-24T08:58:32;26.50;;;18.97;;
10987;SDS011;5547;42.672;23.230;2023-03-24T09:01:33;28.33;;;20.27;;
10987;SDS011;5547;42.672;23.230;2023-03-24T09:04:34;27.00;;;19.30;;
10987;SDS011;5547;42.672;23.230;2023-03-24T09:07:34;27.93;;;20.37;;
10987;SDS011;5547;42.672;23.230;2023-03-24T09:10:35;28.77;;;20.80;;
10987;SDS011;5547;42.672;23.230;2023-03-24T09:13:35;25.07;;;19.17;;
10987;SDS011;5547;42.672;23.230;2023-03-24T09:16:36;26.83;;;19.77;;
10987;SDS011;5547;42.672;23.230;2023-03-24T09:19:36;24.58;;;18.80;;
10987;SDS011;5547;42.672;23.230;2023-03-24T09:22:38;25.63;;;18.75;;
10987;SDS011;5547;42.672;23.230;2023-03-24T09:25:40;25.23;;;18.33;;
10987;SDS011;5547;42.672;23.230;2023-03-24T09:28:40;25.43;;;18.67;;
10987;SDS011;5547;42.672;23.230;2023-03-24T09:31:41;23.63;;;17.60;;
10987;SDS011;5547;42.672;23.230;2023-03-24T09:34:41;26.67;;;17.07;;
10987;SDS011;5547;42.672;23.230;2023-03-24T09:37:41;24.38;;;16.48;;
10987;SDS011;5547;42.672;23.230;2023-03-24T09:40:42;24.87;;;17.83;;
10987;SDS011;5547;42.672;23.230;2023-03-24T09:46:56;26.17;;;16.80;;
10987;SDS011;5547;42.672;23.230;2023-03-24T09:50:20;19.85;;;15.45;;
10987;SDS011;5547;42.672;23.230;2023-03-24T09:56:37;21.42;;;15.18;;
10987;SDS011;5547;42.672;23.230;2023-03-24T09:59:40;21.80;;;15.43;;
10987;SDS011;5547;42.672;23.230;2023-03-24T10:02:40;17.92;;;13.45;;
10987;SDS011;5547;42.672;23.230;2023-03-24T10:05:45;20.13;;;13.05;;
10987;SDS011;5547;42.672;23.230;2023-03-24T10:08:50;18.17;;;13.20;;
10987;SDS011;5547;42.672;23.230;2023-03-24T10:18:41;18.42;;;12.65;;
10987;SDS011;5547;42.672;23.230;2023-03-24T10:21:47;15.50;;;11.70;;
10987;SDS011;5547;42.672;23.230;2023-03-24T10:28:27;17.55;;;12.77;;
10987;SDS011;5547;42.672;23.230;2023-03-24T10:31:39;13.80;;;10.60;;
10987;SDS011;5547;42.672;23.230;2023-03-24T10:34:43;13.07;;;8.80;;
10987;SDS011;5547;42.672;23.230;2023-03-24T10:37:47;14.65;;;9.95;;
10987;SDS011;5547;42.672;23.230;2023-03-24T10:40:49;16.25;;;11.93;;
10987;SDS011;5547;42.672;23.230;2023-03-24T10:43:53;16.08;;;11.15;;
10987;SDS011;5547;42.672;23.230;2023-03-24T10:47:01;10.38;;;8.38;;
10987;SDS011;5547;42.672;23.230;2023-03-24T10:50:06;11.75;;;7.80;;
10987;SDS011;5547;42.672;23.230;2023-03-24T10:53:10;9.32;;;8.10;;
10987;SDS011;5547;42.672;23.230;2023-03-24T10:56:18;12.13;;;8.75;;
10987;SDS011;5547;42.672;23.230;2023-03-24T11:00:24;11.55;;;8.05;;
10987;SDS011;5547;42.672;23.230;2023-03-24T11:03:22;6.97;;;6.00;;
10987;SDS011;5547;42.672;23.230;2023-03-24T11:06:29;8.55;;;5.97;;
10987;SDS011;5547;42.672;23.230;2023-03-24T11:09:40;9.40;;;7.22;;
10987;SDS011;5547;42.672;23.230;2023-03-24T11:19:06;7.60;;;5.57;;
10987;SDS011;5547;42.672;23.230;2023-03-24T11:22:17;7.18;;;5.75;;
10987;SDS011;5547;42.672;23.230;2023-03-24T11:25:18;7.85;;;5.72;;
10987;SDS011;5547;42.672;23.230;2023-03-24T11:28:21;8.02;;;6.07;;
10987;SDS011;5547;42.672;23.230;2023-03-24T11:31:27;6.25;;;5.30;;
10987;SDS011;5547;42.672;23.230;2023-03-24T11:34:36;7.93;;;5.80;;
10987;SDS011;5547;42.672;23.230;2023-03-24T11:37:41;7.05;;;5.35;;
10987;SDS011;5547;42.672;23.230;2023-03-24T11:40:54;7.55;;;5.60;;
10987;SDS011;5547;42.672;23.230;2023-03-24T11:44:15;6.53;;;5.13;;
10987;SDS011;5547;42.672;23.230;2023-03-24T11:50:32;7.57;;;5.55;;
10987;SDS011;5547;42.672;23.230;2023-03-24T11:53:51;8.80;;;5.78;;
10987;SDS011;5547;42.672;23.230;2023-03-24T11:56:55;8.20;;;5.60;;
10987;SDS011;5547;42.672;23.230;2023-03-24T11:59:59;7.63;;;5.78;;
10987;SDS011;5547;42.672;23.230;2023-03-24T12:16:29;7.13;;;4.93;;
10987;SDS011;5547;42.672;23.230;2023-03-24T12:19:56;8.13;;;5.60;;
10987;SDS011;5547;42.672;23.230;2023-03-24T12:23:41;6.47;;;4.80;;
10987;SDS011;5547;42.672;23.230;2023-03-24T12:26:33;6.10;;;5.10;;
10987;SDS011;5547;42.672;23.230;2023-03-24T12:29:50;6.80;;;5.15;;
10987;SDS011;5547;42.672;23.230;2023-03-24T12:43:16;6.90;;;5.10;;
10987;SDS011;5547;42.672;23.230;2023-03-24T12:46:50;9.45;;;5.38;;
10987;SDS011;5547;42.672;23.230;2023-03-24T12:53:32;6.63;;;4.30;;
10987;SDS011;5547;42.672;23.230;2023-03-24T12:56:51;5.60;;;4.23;;
10987;SDS011;5547;42.672;23.230;2023-03-24T13:00:11;5.30;;;4.30;;
10987;SDS011;5547;42.672;23.230;2023-03-24T13:03:29;6.93;;;4.13;;
10987;SDS011;5547;42.672;23.230;2023-03-24T13:06:36;6.50;;;4.35;;
10987;SDS011;5547;42.672;23.230;2023-03-24T13:09:51;7.87;;;4.50;;
10987;SDS011;5547;42.672;23.230;2023-03-24T13:12:57;4.73;;;4.10;;
10987;SDS011;5547;42.672;23.230;2023-03-24T13:19:15;5.60;;;4.00;;
10987;SDS011;5547;42.672;23.230;2023-03-24T13:22:20;4.38;;;3.50;;
10987;SDS011;5547;42.672;23.230;2023-03-24T13:25:57;4.30;;;3.30;;
10987;SDS011;5547;42.672;23.230;2023-03-24T13:32:00;4.07;;;3.40;;
10987;SDS011;5547;42.672;23.230;2023-03-24T13:41:58;5.45;;;3.47;;
10987;SDS011;5547;42.672;23.230;2023-03-24T13:44:59;6.38;;;3.95;;
10987;SDS011;5547;42.672;23.230;2023-03-24T13:51:15;4.70;;;3.13;;
10987;SDS011;5547;42.672;23.230;2023-03-24T13:54:29;4.55;;;3.50;;
10987;SDS011;5547;42.672;23.230;2023-03-24T13:57:30;5.10;;;3.33;;
10987;SDS011;5547;42.672;23.230;2023-03-24T14:00:30;4.13;;;3.22;;
10987;SDS011;5547;42.672;23.230;2023-03-24T14:03:32;4.28;;;3.22;;
10987;SDS011;5547;42.672;23.230;2023-03-24T14:06:56;4.27;;;3.47;;
10987;SDS011;5547;42.672;23.230;2023-03-24T14:10:02;3.83;;;3.00;;
10987;SDS011;5547;42.672;23.230;2023-03-24T14:13:47;5.30;;;2.78;;
10987;SDS011;5547;42.672;23.230;2023-03-24T14:17:05;5.00;;;3.30;;
10987;SDS011;5547;42.672;23.230;2023-03-24T14:20:12;4.90;;;3.42;;
10987;SDS011;5547;42.672;23.230;2023-03-24T14:26:33;4.93;;;3.42;;
10987;SDS011;5547;42.672;23.230;2023-03-24T14:29:46;4.03;;;3.47;;
10987;SDS011;5547;42.672;23.230;2023-03-24T14:32:52;5.10;;;3.30;;
10987;SDS011;5547;42.672;23.230;2023-03-24T14:35:56;4.00;;;3.30;;
10987;SDS011;5547;42.672;23.230;2023-03-24T14:39:11;6.53;;;3.77;;
10987;SDS011;5547;42.672;23.230;2023-03-24T14:52:09;5.65;;;3.55;;
10987;SDS011;5547;42.672;23.230;2023-03-24T14:55:16;4.53;;;3.40;;
10987;SDS011;5547;42.672;23.230;2023-03-24T14:58:22;6.18;;;3.20;;
10987;SDS011;5547;42.672;23.230;2023-03-24T15:01:30;5.50;;;3.30;;
10987;SDS011;5547;42.672;23.230;2023-03-24T15:04:33;4.35;;;3.38;;
10987;SDS011;5547;42.672;23.230;2023-03-24T15:07:38;4.70;;;3.63;;
10987;SDS011;5547;42.672;23.230;2023-03-24T15:10:40;4.85;;;3.30;;
10987;SDS011;5547;42.672;23.230;2023-03-24T15:13:52;5.97;;;3.40;;
10987;SDS011;5547;42.672;23.230;2023-03-24T15:16:55;6.90;;;3.42;;
10987;SDS011;5547;42.672;23.230;2023-03-24T15:20:00;5.78;;;3.58;;
10987;SDS011;5547;42.672;23.230;2023-03-24T15:23:07;5.80;;;3.37;;
10987;SDS011;5547;42.672;23.230;2023-03-24T15:26:17;4.55;;;3.40;;
10987;SDS011;5547;42.672;23.230;2023-03-24T15:29:21;6.40;;;3.70;;
10987;SDS011;5547;42.672;23.230;2023-03-24T15:32:24;5.05;;;3.75;;
10987;SDS011;5547;42.672;23.230;2023-03-24T15:35:30;6.00;;;3.47;;
10987;SDS011;5547;42.672;23.230;2023-03-24T15:38:32;7.43;;;4.13;;
10987;SDS011;5547;42.672;23.230;2023-03-24T15:41:33;5.43;;;4.00;;
10987;SDS011;5547;42.672;23.230;2023-03-24T15:44:35;6.40;;;4.23;;
10987;SDS011;5547;42.672;23.230;2023-03-24T15:47:40;6.70;;;4.60;;
10987;SDS011;5547;42.672;23.230;2023-03-24T15:50:41;8.30;;;4.70;;
10987;SDS011;5547;42.672;23.230;2023-03-24T15:53:57;7.20;;;4.40;;
10987;SDS011;5547;42.672;23.230;2023-03-24T15:56:59;8.68;;;4.68;;
10987;SDS011;5547;42.672;23.230;2023-03-24T16:00:13;6.97;;;4.30;;
10987;SDS011;5547;42.672;23.230;2023-03-24T16:03:15;6.43;;;4.50;;
10987;SDS011;5547;42.672;23.230;2023-03-24T16:06:22;9.73;;;5.60;;
10987;SDS011;5547;42.672;23.230;2023-03-24T16:09:33;9.30;;;5.90;;
10987;SDS011;5547;42.672;23.230;2023-03-24T16:12:36;10.80;;;6.00;;
10987;SDS011;5547;42.672;23.230;2023-03-24T16:15:37;9.70;;;5.35;;
10987;SDS011;5547;42.672;23.230;2023-03-24T16:18:38;9.07;;;5.55;;
10987;SDS011;5547;42.672;23.230;2023-03-24T16:21:47;10.02;;;5.45;;
10987;SDS011;5547;42.672;23.230;2023-03-24T16:24:47;8.37;;;4.70;;
10987;SDS011;5547;42.672;23.230;2023-03-24T16:27:48;7.47;;;4.60;;
10987;SDS011;5547;42.672;23.230;2023-03-24T16:30:51;7.45;;;5.18;;
10987;SDS011;5547;42.672;23.230;2023-03-24T16:34:03;7.75;;;4.60;;
10987;SDS011;5547;42.672;23.230;2023-03-24T16:37:04;7.13;;;5.13;;
10987;SDS011;5547;42.672;23.230;2023-03-24T16:40:17;8.60;;;4.93;;
10987;SDS011;5547;42.672;23.230;2023-03-24T16:43:39;6.57;;;4.80;;
10987;SDS011;5547;42.672;23.230;2023-03-24T16:46:40;7.00;;;5.00;;
10987;SDS011;5547;42.672;23.230;2023-03-24T16:49:41;7.82;;;5.38;;
10987;SDS011;5547;42.672;23.230;2023-03-24T16:52:41;6.68;;;4.97;;
10987;SDS011;5547;42.672;23.230;2023-03-24T16:55:41;6.85;;;5.40;;
10987;SDS011;5547;42.672;23.230;2023-03-24T16:58:43;7.35;;;4.88;;
10987;SDS011;5547;42.672;23.230;2023-03-24T17:01:45;9.75;;;5.93;;
10987;SDS011;5547;42.672;23.230;2023-03-24T17:04:46;8.68;;;6.88;;
10987;SDS011;5547;42.672;23.230;2023-03-24T17:07:47;8.90;;;7.40;;
10987;SDS011;5547;42.672;23.230;2023-03-24T17:10:49;9.07;;;6.95;;
10987;SDS011;5547;42.672;23.230;2023-03-24T17:13:51;10.80;;;7.10;;
10987;SDS011;5547;42.672;23.230;2023-03-24T17:16:53;11.27;;;7.32;;
10987;SDS011;5547;42.672;23.230;2023-03-24T17:19:53;11.37;;;7.63;;
10987;SDS011;5547;42.672;23.230;2023-03-24T17:22:56;10.40;;;7.33;;
10987;SDS011;5547;42.672;23.230;2023-03-24T17:25:56;9.73;;;7.15;;
10987;SDS011;5547;42.672;23.230;2023-03-24T17:28:57;9.88;;;8.02;;
10987;SDS011;5547;42.672;23.230;2023-03-24T17:31:57;8.03;;;6.60;;
10987;SDS011;5547;42.672;23.230;2023-03-24T17:34:58;8.53;;;5.70;;
10987;SDS011;5547;42.672;23.230;2023-03-24T17:38:00;7.72;;;5.18;;
10987;SDS011;5547;42.672;23.230;2023-03-24T17:41:01;7.83;;;5.03;;
10987;SDS011;5547;42.672;23.230;2023-03-24T17:44:03;6.40;;;5.07;;
10987;SDS011;5547;42.672;23.230;2023-03-24T17:47:03;6.03;;;4.43;;
10987;SDS011;5547;42.672;23.230;2023-03-24T17:50:04;6.27;;;4.43;;
10987;SDS011;5547;42.672;23.230;2023-03-24T17:53:11;7.13;;;4.55;;
10987;SDS011;5547;42.672;23.230;2023-03-24T17:56:12;7.70;;;5.20;;
10987;SDS011;5547;42.672;23.230;2023-03-24T17:59:13;6.35;;;5.15;;
10987;SDS011;5547;42.672;23.230;2023-03-24T18:02:13;5.75;;;4.82;;
10987;SDS011;5547;42.672;23.230;2023-03-24T18:05:13;9.23;;;6.90;;
10987;SDS011;5547;42.672;23.230;2023-03-24T18:08:14;10.67;;;7.70;;
10987;SDS011;5547;42.672;23.230;2023-03-24T18:11:15;9.55;;;6.68;;
10987;SDS011;5547;42.672;23.230;2023-03-24T18:14:16;9.40;;;6.20;;
10987;SDS011;5547;42.672;23.230;2023-03-24T18:17:16;8.47;;;6.30;;
10987;SDS011;5547;42.672;23.230;2023-03-24T18:20:17;10.10;;;6.70;;
10987;SDS011;5547;42.672;23.230;2023-03-24T18:23:17;9.43;;;6.50;;
10987;SDS011;5547;42.672;23.230;2023-03-24T18:26:18;10.07;;;6.00;;
10987;SDS011;5547;42.672;23.230;2023-03-24T18:29:18;6.97;;;4.80;;
10987;SDS011;5547;42.672;23.230;2023-03-24T18:32:21;7.83;;;6.33;;
10987;SDS011;5547;42.672;23.230;2023-03-24T18:35:21;8.10;;;6.15;;
10987;SDS011;5547;42.672;23.230;2023-03-24T18:38:22;10.33;;;8.40;;
10987;SDS011;5547;42.672;23.230;2023-03-24T18:41:23;9.20;;;6.28;;
10987;SDS011;5547;42.672;23.230;2023-03-24T18:44:25;9.73;;;7.20;;
10987;SDS011;5547;42.672;23.230;2023-03-24T18:47:26;11.60;;;7.10;;
10987;SDS011;5547;42.672;23.230;2023-03-24T18:50:26;12.27;;;7.17;;
10987;SDS011;5547;42.672;23.230;2023-03-24T18:53:27;13.40;;;10.37;;
10987;SDS011;5547;42.672;23.230;2023-03-24T18:56:27;13.75;;;9.88;;
10987;SDS011;5547;42.672;23.230;2023-03-24T18:59:27;16.67;;;12.13;;
10987;SDS011;5547;42.672;23.230;2023-03-24T19:02:29;19.20;;;13.47;;
10987;SDS011;5547;42.672;23.230;2023-03-24T19:05:30;34.78;;;18.73;;
10987;SDS011;5547;42.672;23.230;2023-03-24T19:08:32;25.53;;;17.87;;
10987;SDS011;5547;42.672;23.230;2023-03-24T19:11:34;31.65;;;21.83;;
10987;SDS011;5547;42.672;23.230;2023-03-24T19:14:35;23.87;;;17.60;;
10987;SDS011;5547;42.672;23.230;2023-03-24T19:17:36;26.17;;;17.77;;
10987;SDS011;5547;42.672;23.230;2023-03-24T19:20:36;21.43;;;16.13;;
10987;SDS011;5547;42.672;23.230;2023-03-24T19:23:38;25.40;;;16.67;;
10987;SDS011;5547;42.672;23.230;2023-03-24T19:26:39;45.53;;;23.80;;
10987;SDS011;5547;42.672;23.230;2023-03-24T19:29:39;47.08;;;26.38;;
10987;SDS011;5547;42.672;23.230;2023-03-24T19:32:39;27.45;;;19.02;;
10987;SDS011;5547;42.672;23.230;2023-03-24T19:35:40;24.53;;;15.37;;
10987;SDS011;5547;42.672;23.230;2023-03-24T19:38:40;20.43;;;14.73;;
10987;SDS011;5547;42.672;23.230;2023-03-24T19:41:41;22.80;;;14.43;;
10987;SDS011;5547;42.672;23.230;2023-03-24T19:44:41;19.07;;;13.60;;
10987;SDS011;5547;42.672;23.230;2023-03-24T19:47:42;20.00;;;14.60;;
10987;SDS011;5547;42.672;23.230;2023-03-24T19:50:45;20.23;;;14.23;;
10987;SDS011;5547;42.672;23.230;2023-03-24T19:53:48;19.05;;;12.98;;
10987;SDS011;5547;42.672;23.230;2023-03-24T19:56:48;19.77;;;12.97;;
10987;SDS011;5547;42.672;23.230;2023-03-24T19:59:49;20.33;;;13.18;;
10987;SDS011;5547;42.672;23.230;2023-03-24T20:02:50;20.73;;;14.57;;
10987;SDS011;5547;42.672;23.230;2023-03-24T20:05:51;17.83;;;13.10;;
10987;SDS011;5547;42.672;23.230;2023-03-24T20:08:51;17.00;;;14.20;;
10987;SDS011;5547;42.672;23.230;2023-03-24T20:11:52;22.13;;;13.97;;
10987;SDS011;5547;42.672;23.230;2023-03-24T20:14:53;20.60;;;12.68;;
10987;SDS011;5547;42.672;23.230;2023-03-24T20:17:54;20.60;;;14.90;;
10987;SDS011;5547;42.672;23.230;2023-03-24T20:20:55;25.80;;;16.00;;
10987;SDS011;5547;42.672;23.230;2023-03-24T20:23:56;22.75;;;13.93;;
10987;SDS011;5547;42.672;23.230;2023-03-24T20:26:56;20.70;;;14.03;;
10987;SDS011;5547;42.672;23.230;2023-03-24T20:29:57;19.43;;;13.97;;